Goondiwindi Airport


Codes: YGDI/GOO
Name: Goondiwindi Airport
City:
Country: Australia
Elevation: 714 ft.

Photos at Goondiwindi Airport


   Photos courtesy of SpottingLog. You can add your own sightings and photos by signing up for a free trial today.



No photos found.

Weather at Goondiwindi Airport


Time (UTC)DescriptionTempratureWindCloud coverageVisibilityPressureHumidity
25-Jun-2024 12:00Overcast Clouds15°C11 mph, NE100%10000m1021hPa60%
25-Jun-2024 15:00Overcast Clouds15°C13 mph, NE98%10000m1021hPa64%
25-Jun-2024 18:00Overcast Clouds14°C9 mph, NE97%10000m1021hPa72%
25-Jun-2024 21:00Light Rain14°C7 mph, N91%10000m1023hPa82%
26-Jun-2024 00:00Overcast Clouds16°C9 mph, NE90%10000m1023hPa73%
26-Jun-2024 03:00Broken Clouds21°C11 mph, N68%10000m1020hPa56%
26-Jun-2024 06:00Light Rain20°C7 mph, NW55%10000m1019hPa62%
26-Jun-2024 09:00Light Rain16°C7 mph, NW70%10000m1021hPa84%
26-Jun-2024 12:00Light Rain14°C9 mph, N71%10000m1022hPa91%
26-Jun-2024 15:00Overcast Clouds16°C7 mph, N94%10000m1021hPa93%
26-Jun-2024 18:00Light Rain14°C4 mph, NW75%10000m1021hPa93%
26-Jun-2024 21:00Scattered Clouds12°C4 mph, SW42%10000m1023hPa93%
27-Jun-2024 00:00Few Clouds17°C4 mph, S19%10000m1023hPa73%
27-Jun-2024 03:00Clear Sky21°C7 mph, SW0%10000m1020hPa55%
27-Jun-2024 06:00Clear Sky20°C9 mph, SW3%10000m1020hPa47%
27-Jun-2024 09:00Clear Sky14°C9 mph, S0%10000m1022hPa47%
27-Jun-2024 12:00Clear Sky12°C9 mph, S0%10000m1023hPa47%
27-Jun-2024 15:00Clear Sky10°C7 mph, S0%10000m1023hPa52%
27-Jun-2024 18:00Clear Sky9°C4 mph, S0%10000m1023hPa57%
27-Jun-2024 21:00Clear Sky8°C2 mph, SE0%10000m1025hPa65%
28-Jun-2024 00:00Clear Sky16°C2 mph, SE0%10000m1025hPa42%
28-Jun-2024 03:00Clear Sky20°C2 mph, SE0%10000m1023hPa32%
28-Jun-2024 06:00Clear Sky20°C2 mph, S0%10000m1022hPa34%
28-Jun-2024 09:00Clear Sky14°C4 mph, S0%10000m1023hPa44%
28-Jun-2024 12:00Clear Sky13°C7 mph, E0%10000m1023hPa44%
28-Jun-2024 15:00Clear Sky12°C9 mph, NE2%10000m1024hPa90%
28-Jun-2024 18:00Broken Clouds13°C9 mph, E51%10000m1023hPa82%
28-Jun-2024 21:00Overcast Clouds13°C9 mph, NE100%10000m1024hPa82%
29-Jun-2024 00:00Broken Clouds17°C11 mph, NE84%10000m1024hPa65%
29-Jun-2024 03:00Scattered Clouds20°C11 mph, N37%10000m1021hPa56%
29-Jun-2024 06:00Broken Clouds21°C7 mph, NE58%10000m1020hPa59%
29-Jun-2024 09:00Overcast Clouds18°C7 mph, NE91%10000m1021hPa69%
29-Jun-2024 12:00Light Rain18°C11 mph, NE91%10000m1021hPa72%
29-Jun-2024 15:00Broken Clouds17°C11 mph, NE82%10000m1020hPa77%
29-Jun-2024 18:00Overcast Clouds17°C11 mph, N91%10000m1020hPa78%
29-Jun-2024 21:00Light Rain16°C11 mph, N100%10000m1021hPa87%
30-Jun-2024 00:00Light Rain20°C16 mph, N62%10000m1020hPa75%
30-Jun-2024 03:00Light Rain25°C16 mph, NW2%10000m1016hPa49%
30-Jun-2024 06:00Few Clouds25°C13 mph, NW16%10000m1014hPa44%
30-Jun-2024 09:00Overcast Clouds21°C13 mph, N89%10000m1015hPa58%